sensor_id;sensor_type;location;lat;lon;timestamp;pressure;altitude;pressure_sealevel;temperature;humidity
10310;BME280;5200;43.236;27.986;2023-04-07T00:00:23;99782.88;;;5.20;76.01
10310;BME280;5200;43.236;27.986;2023-04-07T00:02:50;99772.69;;;5.04;75.40
10310;BME280;5200;43.236;27.986;2023-04-07T00:05:17;99793.41;;;5.19;75.11
10310;BME280;5200;43.236;27.986;2023-04-07T00:07:45;99767.69;;;5.01;75.01
10310;BME280;5200;43.236;27.986;2023-04-07T00:10:12;99761.75;;;4.99;74.15
10310;BME280;5200;43.236;27.986;2023-04-07T00:12:38;99757.69;;;4.95;73.97
10310;BME280;5200;43.236;27.986;2023-04-07T00:15:06;99767.47;;;5.04;74.41
10310;BME280;5200;43.236;27.986;2023-04-07T00:17:33;99795.06;;;5.20;75.15
10310;BME280;5200;43.236;27.986;2023-04-07T00:20:00;99782.69;;;5.11;74.97
10310;BME280;5200;43.236;27.986;2023-04-07T00:22:27;99785.66;;;5.17;74.57
10310;BME280;5200;43.236;27.986;2023-04-07T00:24:55;99764.56;;;4.96;74.96
10310;BME280;5200;43.236;27.986;2023-04-07T00:27:22;99787.69;;;5.14;75.02
10310;BME280;5200;43.236;27.986;2023-04-07T00:29:49;99791.22;;;5.13;74.83
10310;BME280;5200;43.236;27.986;2023-04-07T00:32:15;99792.88;;;5.14;74.52
10310;BME280;5200;43.236;27.986;2023-04-07T00:34:42;99756.03;;;4.94;74.35
10310;BME280;5200;43.236;27.986;2023-04-07T00:37:09;99783.50;;;5.11;74.09
10310;BME280;5200;43.236;27.986;2023-04-07T00:39:36;99755.16;;;4.94;74.50
10310;BME280;5200;43.236;27.986;2023-04-07T00:42:04;99787.03;;;5.10;74.65
10310;BME280;5200;43.236;27.986;2023-04-07T00:44:31;99750.41;;;4.87;74.00
10310;BME280;5200;43.236;27.986;2023-04-07T00:46:58;99749.56;;;4.87;73.95
10310;BME280;5200;43.236;27.986;2023-04-07T00:49:26;99761.44;;;4.91;74.32
10310;BME280;5200;43.236;27.986;2023-04-07T00:51:53;99757.91;;;4.92;73.62
10310;BME280;5200;43.236;27.986;2023-04-07T00:54:20;99762.38;;;4.90;73.42
10310;BME280;5200;43.236;27.986;2023-04-07T00:56:49;99764.16;;;4.90;73.28
10310;BME280;5200;43.236;27.986;2023-04-07T00:59:17;99789.97;;;5.05;73.63
10310;BME280;5200;43.236;27.986;2023-04-07T01:01:49;99753.56;;;4.80;73.58
10310;BME280;5200;43.236;27.986;2023-04-07T01:04:26;99805.63;;;5.05;74.38
10310;BME280;5200;43.236;27.986;2023-04-07T01:06:57;99774.59;;;4.90;74.53
10310;BME280;5200;43.236;27.986;2023-04-07T01:09:31;99755.19;;;4.81;74.60
10310;BME280;5200;43.236;27.986;2023-04-07T01:12:04;99800.03;;;4.99;74.45
10310;BME280;5200;43.236;27.986;2023-04-07T01:14:39;99769.19;;;4.80;74.85
10310;BME280;5200;43.236;27.986;2023-04-07T01:17:09;99758.84;;;4.78;74.89
10310;BME280;5200;43.236;27.986;2023-04-07T01:19:38;99782.81;;;4.96;74.07
10310;BME280;5200;43.236;27.986;2023-04-07T01:22:09;99791.47;;;4.97;73.61
10310;BME280;5200;43.236;27.986;2023-04-07T01:25:05;99763.25;;;4.78;73.70
10310;BME280;5200;43.236;27.986;2023-04-07T01:27:38;99787.00;;;4.86;73.78
10310;BME280;5200;43.236;27.986;2023-04-07T01:30:11;99757.53;;;4.73;73.87
10310;BME280;5200;43.236;27.986;2023-04-07T01:32:39;99783.16;;;4.92;73.17
10310;BME280;5200;43.236;27.986;2023-04-07T01:35:09;99760.84;;;4.75;73.05
10310;BME280;5200;43.236;27.986;2023-04-07T01:37:36;99775.22;;;4.80;72.85
10310;BME280;5200;43.236;27.986;2023-04-07T01:40:06;99788.44;;;4.90;72.63
10310;BME280;5200;43.236;27.986;2023-04-07T01:42:34;99758.75;;;4.67;72.63
10310;BME280;5200;43.236;27.986;2023-04-07T01:45:05;99790.03;;;4.80;72.56
10310;BME280;5200;43.236;27.986;2023-04-07T01:47:35;99773.34;;;4.82;72.95
10310;BME280;5200;43.236;27.986;2023-04-07T01:50:03;99764.81;;;4.68;73.26
10310;BME280;5200;43.236;27.986;2023-04-07T01:52:31;99754.81;;;4.61;72.84
10310;BME280;5200;43.236;27.986;2023-04-07T01:54:59;99791.91;;;4.78;73.21
10310;BME280;5200;43.236;27.986;2023-04-07T01:57:26;99756.69;;;4.59;73.08
10310;BME280;5200;43.236;27.986;2023-04-07T01:59:52;99782.63;;;4.74;73.45
10310;BME280;5200;43.236;27.986;2023-04-07T02:02:20;99782.41;;;4.77;73.35
10310;BME280;5200;43.236;27.986;2023-04-07T02:04:53;99793.66;;;4.77;73.11
10310;BME280;5200;43.236;27.986;2023-04-07T02:07:28;99749.78;;;4.58;72.99
10310;BME280;5200;43.236;27.986;2023-04-07T02:09:58;99784.50;;;4.72;73.32
10310;BME280;5200;43.236;27.986;2023-04-07T02:12:28;99788.78;;;4.73;73.17
10310;BME280;5200;43.236;27.986;2023-04-07T02:14:55;99760.44;;;4.55;72.95
10310;BME280;5200;43.236;27.986;2023-04-07T02:17:24;99780.44;;;4.68;73.07
10310;BME280;5200;43.236;27.986;2023-04-07T02:19:53;99769.00;;;4.57;73.03
10310;BME280;5200;43.236;27.986;2023-04-07T02:22:21;99779.84;;;4.64;72.23
10310;BME280;5200;43.236;27.986;2023-04-07T02:24:48;99795.66;;;4.74;72.58
10310;BME280;5200;43.236;27.986;2023-04-07T02:27:16;99776.91;;;4.56;72.42
10310;BME280;5200;43.236;27.986;2023-04-07T02:29:42;99771.09;;;4.52;72.62
10310;BME280;5200;43.236;27.986;2023-04-07T02:32:09;99768.88;;;4.46;73.02
10310;BME280;5200;43.236;27.986;2023-04-07T02:34:36;99775.47;;;4.52;73.30
10310;BME280;5200;43.236;27.986;2023-04-07T02:37:04;99772.94;;;4.50;73.42
10310;BME280;5200;43.236;27.986;2023-04-07T02:39:31;99813.41;;;4.69;73.15
10310;BME280;5200;43.236;27.986;2023-04-07T02:41:58;99800.69;;;4.64;73.37
10310;BME280;5200;43.236;27.986;2023-04-07T02:44:24;99814.31;;;4.68;73.11
10310;BME280;5200;43.236;27.986;2023-04-07T02:46:51;99780.03;;;4.48;73.12
10310;BME280;5200;43.236;27.986;2023-04-07T02:49:18;99799.00;;;4.50;73.86
10310;BME280;5200;43.236;27.986;2023-04-07T02:51:45;99817.13;;;4.64;73.19
10310;BME280;5200;43.236;27.986;2023-04-07T02:54:13;99786.91;;;4.49;73.39
10310;BME280;5200;43.236;27.986;2023-04-07T02:56:40;99804.72;;;4.55;73.45
10310;BME280;5200;43.236;27.986;2023-04-07T02:59:07;99815.50;;;4.63;73.54
10310;BME280;5200;43.236;27.986;2023-04-07T03:01:33;99801.91;;;4.58;73.81
10310;BME280;5200;43.236;27.986;2023-04-07T03:04:01;99794.84;;;4.48;73.11
10310;BME280;5200;43.236;27.986;2023-04-07T03:06:27;99795.66;;;4.48;73.16
10310;BME280;5200;43.236;27.986;2023-04-07T03:08:55;99820.88;;;4.60;73.64
10310;BME280;5200;43.236;27.986;2023-04-07T03:11:24;99819.09;;;4.61;73.83
10310;BME280;5200;43.236;27.986;2023-04-07T03:13:50;99819.44;;;4.56;73.58
10310;BME280;5200;43.236;27.986;2023-04-07T03:16:17;99811.94;;;4.52;73.66
10310;BME280;5200;43.236;27.986;2023-04-07T03:18:44;99833.09;;;4.60;74.16
10310;BME280;5200;43.236;27.986;2023-04-07T03:21:12;99798.69;;;4.42;74.09
10310;BME280;5200;43.236;27.986;2023-04-07T03:23:38;99829.66;;;4.59;73.75
10310;BME280;5200;43.236;27.986;2023-04-07T03:26:05;99798.69;;;4.42;73.68
10310;BME280;5200;43.236;27.986;2023-04-07T03:28:33;99827.13;;;4.58;74.18
10310;BME280;5200;43.236;27.986;2023-04-07T03:31:00;99799.84;;;4.38;74.23
10310;BME280;5200;43.236;27.986;2023-04-07T03:33:27;99841.94;;;4.57;73.91
10310;BME280;5200;43.236;27.986;2023-04-07T03:35:54;99826.72;;;4.51;73.92
10310;BME280;5200;43.236;27.986;2023-04-07T03:38:21;99838.28;;;4.60;73.20
10310;BME280;5200;43.236;27.986;2023-04-07T03:40:48;99818.06;;;4.38;73.54
10310;BME280;5200;43.236;27.986;2023-04-07T03:43:15;99836.75;;;4.57;73.81
10310;BME280;5200;43.236;27.986;2023-04-07T03:45:43;99845.50;;;4.56;73.32
10310;BME280;5200;43.236;27.986;2023-04-07T03:48:10;99829.22;;;4.40;73.41
10310;BME280;5200;43.236;27.986;2023-04-07T03:50:37;99826.50;;;4.41;73.01
10310;BME280;5200;43.236;27.986;2023-04-07T03:53:03;99822.75;;;4.45;73.24
10310;BME280;5200;43.236;27.986;2023-04-07T03:55:31;99815.91;;;4.44;73.37
10310;BME280;5200;43.236;27.986;2023-04-07T03:57:58;99825.50;;;4.57;72.94
10310;BME280;5200;43.236;27.986;2023-04-07T04:00:26;99865.41;;;4.83;72.58
10310;BME280;5200;43.236;27.986;2023-04-07T04:02:54;99853.41;;;4.93;71.22
10310;BME280;5200;43.236;27.986;2023-04-07T04:05:21;99854.25;;;5.06;70.03
10310;BME280;5200;43.236;27.986;2023-04-07T04:07:47;99857.97;;;5.28;69.12
10310;BME280;5200;43.236;27.986;2023-04-07T04:10:15;99844.63;;;5.20;67.47
10310;BME280;5200;43.236;27.986;2023-04-07T04:12:42;99847.44;;;5.29;67.34
10310;BME280;5200;43.236;27.986;2023-04-07T04:15:10;99836.66;;;5.34;67.31
10310;BME280;5200;43.236;27.986;2023-04-07T04:17:36;99860.75;;;5.50;66.35
10310;BME280;5200;43.236;27.986;2023-04-07T04:20:06;99872.56;;;5.43;67.02
10310;BME280;5200;43.236;27.986;2023-04-07T04:22:33;99869.22;;;5.41;66.96
10310;BME280;5200;43.236;27.986;2023-04-07T04:25:00;99843.78;;;5.19;66.69
10310;BME280;5200;43.236;27.986;2023-04-07T04:27:27;99878.41;;;5.34;66.90
10310;BME280;5200;43.236;27.986;2023-04-07T04:29:54;99882.16;;;5.30;66.67
10310;BME280;5200;43.236;27.986;2023-04-07T04:32:21;99885.69;;;5.29;67.74
10310;BME280;5200;43.236;27.986;2023-04-07T04:34:48;99856.75;;;5.08;68.17
10310;BME280;5200;43.236;27.986;2023-04-07T04:37:16;99863.53;;;5.11;68.44
10310;BME280;5200;43.236;27.986;2023-04-07T04:39:43;99860.91;;;5.11;68.77
10310;BME280;5200;43.236;27.986;2023-04-07T04:42:10;99892.81;;;5.27;68.85
10310;BME280;5200;43.236;27.986;2023-04-07T04:44:37;99884.03;;;5.28;68.65
10310;BME280;5200;43.236;27.986;2023-04-07T04:47:03;99867.56;;;5.15;68.17
10310;BME280;5200;43.236;27.986;2023-04-07T04:49:30;99862.56;;;5.12;67.72
10310;BME280;5200;43.236;27.986;2023-04-07T04:51:57;99888.84;;;5.34;68.23
10310;BME280;5200;43.236;27.986;2023-04-07T04:54:25;99870.31;;;5.13;68.52
10310;BME280;5200;43.236;27.986;2023-04-07T04:56:52;99868.53;;;5.14;67.88
10310;BME280;5200;43.236;27.986;2023-04-07T04:59:22;99902.00;;;5.33;67.94
10310;BME280;5200;43.236;27.986;2023-04-07T05:01:51;99901.91;;;5.34;68.49
10310;BME280;5200;43.236;27.986;2023-04-07T05:04:18;99899.38;;;5.33;67.71
10310;BME280;5200;43.236;27.986;2023-04-07T05:06:44;99863.81;;;5.19;67.08
10310;BME280;5200;43.236;27.986;2023-04-07T05:09:11;99866.94;;;5.24;66.72
10310;BME280;5200;43.236;27.986;2023-04-07T05:11:40;99882.41;;;5.27;67.02
10310;BME280;5200;43.236;27.986;2023-04-07T05:14:07;99890.72;;;5.32;66.59
10310;BME280;5200;43.236;27.986;2023-04-07T05:16:34;99923.75;;;5.57;66.81
10310;BME280;5200;43.236;27.986;2023-04-07T05:19:01;99869.41;;;5.38;66.61
10310;BME280;5200;43.236;27.986;2023-04-07T05:21:28;99896.94;;;5.55;67.30
10310;BME280;5200;43.236;27.986;2023-04-07T05:23:55;99917.53;;;5.84;66.60
10310;BME280;5200;43.236;27.986;2023-04-07T05:26:21;99921.38;;;5.91;65.54
10310;BME280;5200;43.236;27.986;2023-04-07T05:28:50;99888.19;;;5.80;64.57
10310;BME280;5200;43.236;27.986;2023-04-07T05:31:16;99919.47;;;6.06;64.92
10310;BME280;5200;43.236;27.986;2023-04-07T05:33:43;99933.31;;;6.19;65.10
10310;BME280;5200;43.236;27.986;2023-04-07T05:36:10;99902.63;;;6.10;64.07
10310;BME280;5200;43.236;27.986;2023-04-07T05:38:37;99931.97;;;6.38;63.73
10310;BME280;5200;43.236;27.986;2023-04-07T05:41:03;99904.16;;;6.37;62.80
10310;BME280;5200;43.236;27.986;2023-04-07T05:43:30;99939.44;;;6.66;63.33
10310;BME280;5200;43.236;27.986;2023-04-07T05:45:58;99919.53;;;6.88;63.23
10310;BME280;5200;43.236;27.986;2023-04-07T05:48:25;99921.56;;;7.07;60.69
10310;BME280;5200;43.236;27.986;2023-04-07T05:50:52;99938.84;;;7.32;60.27
10310;BME280;5200;43.236;27.986;2023-04-07T05:53:19;99910.88;;;7.44;60.38
10310;BME280;5200;43.236;27.986;2023-04-07T05:55:46;99947.34;;;8.01;60.29
10310;BME280;5200;43.236;27.986;2023-04-07T05:58:12;99912.16;;;8.15;57.53
10310;BME280;5200;43.236;27.986;2023-04-07T06:00:40;99940.31;;;8.45;56.00
10310;BME280;5200;43.236;27.986;2023-04-07T06:03:08;99915.09;;;8.65;56.96
10310;BME280;5200;43.236;27.986;2023-04-07T06:05:35;99943.16;;;8.96;55.40
10310;BME280;5200;43.236;27.986;2023-04-07T06:08:02;99920.78;;;8.92;54.12
10310;BME280;5200;43.236;27.986;2023-04-07T06:10:28;99938.19;;;8.93;52.62
10310;BME280;5200;43.236;27.986;2023-04-07T06:12:56;99947.41;;;8.87;51.98
10310;BME280;5200;43.236;27.986;2023-04-07T06:15:23;99914.09;;;8.45;52.82
10310;BME280;5200;43.236;27.986;2023-04-07T06:17:49;99945.91;;;8.52;52.66
10310;BME280;5200;43.236;27.986;2023-04-07T06:20:18;99955.81;;;8.49;53.51
10310;BME280;5200;43.236;27.986;2023-04-07T06:22:46;99935.28;;;8.21;53.42
10310;BME280;5200;43.236;27.986;2023-04-07T06:25:12;99962.03;;;8.36;53.28
10310;BME280;5200;43.236;27.986;2023-04-07T06:27:39;99962.13;;;8.46;53.44
10310;BME280;5200;43.236;27.986;2023-04-07T06:30:07;99941.75;;;8.38;53.00
10310;BME280;5200;43.236;27.986;2023-04-07T06:32:34;99964.81;;;8.56;52.29
10310;BME280;5200;43.236;27.986;2023-04-07T06:35:01;99942.25;;;8.43;52.38
10310;BME280;5200;43.236;27.986;2023-04-07T06:37:29;99968.59;;;8.63;52.83
10310;BME280;5200;43.236;27.986;2023-04-07T06:39:56;99979.28;;;8.82;53.23
10310;BME280;5200;43.236;27.986;2023-04-07T06:42:23;99965.19;;;9.04;51.99
10310;BME280;5200;43.236;27.986;2023-04-07T06:44:50;99945.00;;;9.05;50.33
10310;BME280;5200;43.236;27.986;2023-04-07T06:47:17;99933.06;;;9.22;49.77
10310;BME280;5200;43.236;27.986;2023-04-07T06:49:43;99940.63;;;9.67;49.86
10310;BME280;5200;43.236;27.986;2023-04-07T06:52:10;99969.63;;;10.25;47.86
10310;BME280;5200;43.236;27.986;2023-04-07T06:54:38;99972.22;;;10.66;47.34
10310;BME280;5200;43.236;27.986;2023-04-07T06:57:05;99966.63;;;11.08;46.74
10310;BME280;5200;43.236;27.986;2023-04-07T06:59:36;99971.25;;;11.33;46.29
10310;BME280;5200;43.236;27.986;2023-04-07T07:02:03;99976.47;;;11.53;45.28
10310;BME280;5200;43.236;27.986;2023-04-07T07:04:31;99968.56;;;11.80;45.81
10310;BME280;5200;43.236;27.986;2023-04-07T07:06:58;99983.53;;;11.90;44.17
10310;BME280;5200;43.236;27.986;2023-04-07T07:09:25;99978.72;;;11.75;44.07
10310;BME280;5200;43.236;27.986;2023-04-07T07:11:53;99982.22;;;11.66;44.43
10310;BME280;5200;43.236;27.986;2023-04-07T07:14:20;99996.09;;;11.68;44.06
10310;BME280;5200;43.236;27.986;2023-04-07T07:16:47;99963.44;;;11.51;44.30
10310;BME280;5200;43.236;27.986;2023-04-07T07:19:14;99989.38;;;11.83;43.38
10310;BME280;5200;43.236;27.986;2023-04-07T07:21:41;99991.84;;;11.85;42.66
10310;BME280;5200;43.236;27.986;2023-04-07T07:24:07;99993.66;;;11.84;43.02
10310;BME280;5200;43.236;27.986;2023-04-07T07:26:34;99995.25;;;12.05;41.97
10310;BME280;5200;43.236;27.986;2023-04-07T07:29:02;100000.50;;;12.33;42.64
10310;BME280;5200;43.236;27.986;2023-04-07T07:31:29;99995.00;;;12.62;42.72
10310;BME280;5200;43.236;27.986;2023-04-07T07:33:56;100014.22;;;12.90;40.91
10310;BME280;5200;43.236;27.986;2023-04-07T07:36:23;99998.06;;;12.93;39.45
10310;BME280;5200;43.236;27.986;2023-04-07T07:38:51;100023.34;;;13.14;40.04
10310;BME280;5200;43.236;27.986;2023-04-07T07:41:18;100008.63;;;13.29;40.08
10310;BME280;5200;43.236;27.986;2023-04-07T07:43:45;100024.53;;;13.37;39.36
10310;BME280;5200;43.236;27.986;2023-04-07T07:46:13;100016.75;;;13.36;38.66
10310;BME280;5200;43.236;27.986;2023-04-07T07:48:40;100016.69;;;13.27;39.16
10310;BME280;5200;43.236;27.986;2023-04-07T07:51:07;100029.78;;;13.29;39.86
10310;BME280;5200;43.236;27.986;2023-04-07T07:53:33;100006.91;;;13.02;39.17
10310;BME280;5200;43.236;27.986;2023-04-07T07:56:00;99996.34;;;12.84;40.11
10310;BME280;5200;43.236;27.986;2023-04-07T07:58:27;100005.72;;;12.78;39.91
10310;BME280;5200;43.236;27.986;2023-04-07T08:00:54;100031.06;;;12.89;40.76
10310;BME280;5200;43.236;27.986;2023-04-07T08:03:22;100027.81;;;12.95;40.96
10310;BME280;5200;43.236;27.986;2023-04-07T08:05:49;100026.13;;;13.12;40.02
10310;BME280;5200;43.236;27.986;2023-04-07T08:08:16;100038.38;;;13.13;39.55
10310;BME280;5200;43.236;27.986;2023-04-07T08:10:42;100006.06;;;13.01;39.46
10310;BME280;5200;43.236;27.986;2023-04-07T08:13:09;100033.06;;;13.31;39.68
10310;BME280;5200;43.236;27.986;2023-04-07T08:15:36;100005.28;;;13.27;38.91
10310;BME280;5200;43.236;27.986;2023-04-07T08:18:03;100040.56;;;13.62;39.61
10310;BME280;5200;43.236;27.986;2023-04-07T08:20:33;100019.03;;;13.91;39.07
10310;BME280;5200;43.236;27.986;2023-04-07T08:23:00;100002.84;;;13.94;38.24
10310;BME280;5200;43.236;27.986;2023-04-07T08:25:28;100028.06;;;14.23;37.72
10310;BME280;5200;43.236;27.986;2023-04-07T08:27:55;100010.06;;;14.18;37.46
10310;BME280;5200;43.236;27.986;2023-04-07T08:30:22;100005.72;;;14.17;37.15
10310;BME280;5200;43.236;27.986;2023-04-07T08:32:48;100029.59;;;14.25;36.41
10310;BME280;5200;43.236;27.986;2023-04-07T08:35:15;100036.72;;;14.33;37.73
10310;BME280;5200;43.236;27.986;2023-04-07T08:37:43;100036.78;;;14.57;37.45
10310;BME280;5200;43.236;27.986;2023-04-07T08:40:11;100041.94;;;14.67;35.99
10310;BME280;5200;43.236;27.986;2023-04-07T08:42:40;100036.34;;;14.70;37.33
10310;BME280;5200;43.236;27.986;2023-04-07T08:45:08;100038.97;;;14.95;36.89
10310;BME280;5200;43.236;27.986;2023-04-07T08:47:36;100042.63;;;15.02;35.63
10310;BME280;5200;43.236;27.986;2023-04-07T08:50:06;100041.13;;;15.16;36.01
10310;BME280;5200;43.236;27.986;2023-04-07T08:52:34;100033.34;;;15.31;34.65
10310;BME280;5200;43.236;27.986;2023-04-07T08:55:07;100043.94;;;15.31;34.99
10310;BME280;5200;43.236;27.986;2023-04-07T08:57:35;100049.75;;;15.34;34.86
10310;BME280;5200;43.236;27.986;2023-04-07T09:00:02;100047.28;;;15.08;35.02
10310;BME280;5200;43.236;27.986;2023-04-07T09:02:32;100055.88;;;15.02;35.98
10310;BME280;5200;43.236;27.986;2023-04-07T09:04:59;100042.63;;;14.94;34.60
10310;BME280;5200;43.236;27.986;2023-04-07T09:07:26;100065.75;;;14.67;35.23
10310;BME280;5200;43.236;27.986;2023-04-07T09:09:54;100067.06;;;14.55;36.25
10310;BME280;5200;43.236;27.986;2023-04-07T09:12:23;100059.13;;;14.55;36.12
10310;BME280;5200;43.236;27.986;2023-04-07T09:14:50;100066.75;;;14.58;35.49
10310;BME280;5200;43.236;27.986;2023-04-07T09:17:18;100068.06;;;14.62;35.81
10310;BME280;5200;43.236;27.986;2023-04-07T09:19:45;100067.53;;;14.50;36.41
10310;BME280;5200;43.236;27.986;2023-04-07T09:22:12;100064.72;;;14.52;36.33
10310;BME280;5200;43.236;27.986;2023-04-07T09:24:40;100069.34;;;14.42;36.39
10310;BME280;5200;43.236;27.986;2023-04-07T09:27:09;100068.81;;;14.38;36.20
10310;BME280;5200;43.236;27.986;2023-04-07T09:29:39;100069.00;;;14.45;36.68
10310;BME280;5200;43.236;27.986;2023-04-07T09:32:06;100074.72;;;14.58;35.94
10310;BME280;5200;43.236;27.986;2023-04-07T09:34:34;100079.19;;;14.74;36.18
10310;BME280;5200;43.236;27.986;2023-04-07T09:37:02;100074.75;;;14.91;35.22
10310;BME280;5200;43.236;27.986;2023-04-07T09:39:29;100074.44;;;14.94;34.89
10310;BME280;5200;43.236;27.986;2023-04-07T09:41:56;100075.09;;;15.04;35.30
10310;BME280;5200;43.236;27.986;2023-04-07T09:44:24;100061.50;;;14.99;34.95
10310;BME280;5200;43.236;27.986;2023-04-07T09:46:54;100068.16;;;15.03;35.34
10310;BME280;5200;43.236;27.986;2023-04-07T09:49:22;100082.06;;;15.21;35.15
10310;BME280;5200;43.236;27.986;2023-04-07T09:51:53;100076.91;;;15.36;35.13
10310;BME280;5200;43.236;27.986;2023-04-07T09:54:31;100076.72;;;15.54;35.16
10310;BME280;5200;43.236;27.986;2023-04-07T09:56:59;100075.03;;;15.86;34.31
10310;BME280;5200;43.236;27.986;2023-04-07T09:59:28;100074.13;;;16.10;34.32
10310;BME280;5200;43.236;27.986;2023-04-07T10:01:56;100076.84;;;16.33;33.31
10310;BME280;5200;43.236;27.986;2023-04-07T10:04:24;100076.41;;;16.53;33.33
10310;BME280;5200;43.236;27.986;2023-04-07T10:06:52;100083.38;;;16.54;33.21
10310;BME280;5200;43.236;27.986;2023-04-07T10:09:19;100077.28;;;16.45;33.49
10310;BME280;5200;43.236;27.986;2023-04-07T10:11:46;100080.50;;;16.32;33.61
10310;BME280;5200;43.236;27.986;2023-04-07T10:14:15;100080.69;;;16.31;33.42
10310;BME280;5200;43.236;27.986;2023-04-07T10:16:42;100085.19;;;16.22;33.83
10310;BME280;5200;43.236;27.986;2023-04-07T10:19:12;100076.84;;;16.33;33.94
10310;BME280;5200;43.236;27.986;2023-04-07T10:21:40;100084.72;;;16.18;33.18
10310;BME280;5200;43.236;27.986;2023-04-07T10:24:15;100074.31;;;16.09;33.31
10310;BME280;5200;43.236;27.986;2023-04-07T10:26:50;100076.16;;;16.39;33.99
10310;BME280;5200;43.236;27.986;2023-04-07T10:29:19;100079.31;;;16.66;33.80
10310;BME280;5200;43.236;27.986;2023-04-07T10:31:47;100078.59;;;16.80;33.38
10310;BME280;5200;43.236;27.986;2023-04-07T10:34:16;100071.66;;;16.79;33.01
10310;BME280;5200;43.236;27.986;2023-04-07T10:37:08;100082.91;;;16.81;33.02
10310;BME280;5200;43.236;27.986;2023-04-07T10:39:37;100078.03;;;16.62;33.13
10310;BME280;5200;43.236;27.986;2023-04-07T10:42:04;100075.13;;;16.09;33.12
10310;BME280;5200;43.236;27.986;2023-04-07T10:44:47;100077.69;;;15.70;33.64
10310;BME280;5200;43.236;27.986;2023-04-07T10:47:17;100079.72;;;15.59;34.75
10310;BME280;5200;43.236;27.986;2023-04-07T10:50:19;100079.03;;;15.49;36.09
10310;BME280;5200;43.236;27.986;2023-04-07T10:52:48;100083.38;;;15.42;35.56
10310;BME280;5200;43.236;27.986;2023-04-07T10:55:33;100083.38;;;15.26;35.33
10310;BME280;5200;43.236;27.986;2023-04-07T10:58:23;100070.13;;;15.01;36.03
10310;BME280;5200;43.236;27.986;2023-04-07T11:01:18;100085.22;;;15.17;36.59
10310;BME280;5200;43.236;27.986;2023-04-07T11:03:57;100084.34;;;15.33;36.42
10310;BME280;5200;43.236;27.986;2023-04-07T11:06:26;100073.25;;;15.37;35.96
10310;BME280;5200;43.236;27.986;2023-04-07T11:08:53;100086.03;;;15.50;35.29
10310;BME280;5200;43.236;27.986;2023-04-07T11:11:39;100083.34;;;15.58;35.94
10310;BME280;5200;43.236;27.986;2023-04-07T11:14:06;100078.72;;;15.52;36.32
10310;BME280;5200;43.236;27.986;2023-04-07T11:16:41;100080.38;;;15.53;35.79
10310;BME280;5200;43.236;27.986;2023-04-07T11:19:09;100078.88;;;15.26;35.88
10310;BME280;5200;43.236;27.986;2023-04-07T11:21:37;100089.00;;;15.06;36.48
10310;BME280;5200;43.236;27.986;2023-04-07T11:24:05;100088.97;;;14.98;36.84
10310;BME280;5200;43.236;27.986;2023-04-07T11:26:36;100081.72;;;15.08;36.74
10310;BME280;5200;43.236;27.986;2023-04-07T11:29:04;100078.72;;;15.11;36.78
10310;BME280;5200;43.236;27.986;2023-04-07T11:31:31;100076.09;;;15.19;36.24
10310;BME280;5200;43.236;27.986;2023-04-07T11:33:59;100082.72;;;15.48;36.18
10310;BME280;5200;43.236;27.986;2023-04-07T11:36:27;100081.69;;;15.57;36.40
10310;BME280;5200;43.236;27.986;2023-04-07T11:38:56;100088.97;;;15.63;35.92
10310;BME280;5200;43.236;27.986;2023-04-07T11:41:24;100090.63;;;15.56;35.77
10310;BME280;5200;43.236;27.986;2023-04-07T11:44:06;100083.19;;;15.52;35.77
10310;BME280;5200;43.236;27.986;2023-04-07T11:46:33;100079.22;;;15.56;35.72
10310;BME280;5200;43.236;27.986;2023-04-07T11:49:11;100078.06;;;15.42;35.01
10310;BME280;5200;43.236;27.986;2023-04-07T11:51:38;100084.03;;;15.11;35.56
10310;BME280;5200;43.236;27.986;2023-04-07T11:54:07;100093.94;;;14.85;35.79
10310;BME280;5200;43.236;27.986;2023-04-07T11:56:42;100083.84;;;14.88;36.60
10310;BME280;5200;43.236;27.986;2023-04-07T11:59:19;100089.47;;;14.77;36.91
10310;BME280;5200;43.236;27.986;2023-04-07T12:01:47;100040.91;;;14.52;36.80
10310;BME280;5200;43.236;27.986;2023-04-07T12:04:15;100069.81;;;14.96;36.42
10310;BME280;5200;43.236;27.986;2023-04-07T12:06:42;100086.03;;;15.17;36.32
10310;BME280;5200;43.236;27.986;2023-04-07T12:09:27;100088.16;;;15.30;35.56
10310;BME280;5200;43.236;27.986;2023-04-07T12:11:54;100093.66;;;15.12;35.49
10310;BME280;5200;43.236;27.986;2023-04-07T12:14:22;100094.09;;;14.83;35.10
10310;BME280;5200;43.236;27.986;2023-04-07T12:16:49;100091.59;;;14.65;36.36
10310;BME280;5200;43.236;27.986;2023-04-07T12:19:16;100097.13;;;14.46;36.22
10310;BME280;5200;43.236;27.986;2023-04-07T12:21:43;100087.75;;;14.17;36.63
10310;BME280;5200;43.236;27.986;2023-04-07T12:24:10;100095.06;;;13.89;37.26
10310;BME280;5200;43.236;27.986;2023-04-07T12:26:38;100098.22;;;13.22;38.54
10310;BME280;5200;43.236;27.986;2023-04-07T12:29:05;100078.03;;;12.67;39.74
10310;BME280;5200;43.236;27.986;2023-04-07T12:31:32;100081.38;;;12.24;40.38
10310;BME280;5200;43.236;27.986;2023-04-07T12:33:59;100094.22;;;12.09;41.11
10310;BME280;5200;43.236;27.986;2023-04-07T12:36:26;100060.50;;;11.56;40.79
10310;BME280;5200;43.236;27.986;2023-04-07T12:38:54;100083.66;;;11.52;41.71
10310;BME280;5200;43.236;27.986;2023-04-07T12:41:20;100093.00;;;11.27;41.93
10310;BME280;5200;43.236;27.986;2023-04-07T12:43:50;100091.31;;;11.26;42.41
10310;BME280;5200;43.236;27.986;2023-04-07T12:46:17;100089.78;;;11.14;42.70
10310;BME280;5200;43.236;27.986;2023-04-07T12:48:44;100101.31;;;11.13;46.43
10310;BME280;5200;43.236;27.986;2023-04-07T12:51:12;100109.06;;;11.14;46.95
10310;BME280;5200;43.236;27.986;2023-04-07T12:53:39;100107.13;;;11.07;45.03
10310;BME280;5200;43.236;27.986;2023-04-07T12:56:05;100106.72;;;11.02;45.54
10310;BME280;5200;43.236;27.986;2023-04-07T12:58:32;100118.63;;;11.06;47.69
10310;BME280;5200;43.236;27.986;2023-04-07T13:01:00;100114.75;;;11.10;54.57
10310;BME280;5200;43.236;27.986;2023-04-07T13:03:27;100122.91;;;10.97;57.53
10310;BME280;5200;43.236;27.986;2023-04-07T13:05:54;100124.56;;;10.78;54.90
10310;BME280;5200;43.236;27.986;2023-04-07T13:08:24;100122.72;;;10.60;59.62